createdAt,value
2022-07-29T00:00:00.945Z,18.87
2022-07-29T00:02:33.199Z,18.86
2022-07-29T00:05:03.463Z,18.83
2022-07-29T00:07:33.728Z,18.81
2022-07-29T00:10:06.179Z,18.75
2022-07-29T00:12:36.805Z,18.71
2022-07-29T00:15:09.773Z,18.68
2022-07-29T00:17:40.623Z,18.70
2022-07-29T00:20:11.104Z,18.71
2022-07-29T00:22:43.204Z,18.66
2022-07-29T00:25:14.175Z,18.63
2022-07-29T00:27:46.652Z,18.61
2022-07-29T00:30:16.056Z,18.62
2022-07-29T00:32:45.508Z,18.61
2022-07-29T00:35:33.804Z,18.60
2022-07-29T00:38:04.078Z,18.54
2022-07-29T00:40:34.681Z,18.51
2022-07-29T00:43:04.956Z,18.53
2022-07-29T00:45:35.684Z,18.52
2022-07-29T00:48:05.932Z,18.48
2022-07-29T00:50:37.333Z,18.45
2022-07-29T00:53:08.292Z,18.45
2022-07-29T00:55:38.719Z,18.40
2022-07-29T00:58:08.112Z,18.36
2022-07-29T01:00:37.841Z,18.35
2022-07-29T01:03:09.106Z,18.34
2022-07-29T01:05:50.088Z,18.30
2022-07-29T01:08:12.639Z,18.26
2022-07-29T01:10:42.933Z,18.24
2022-07-29T01:13:12.264Z,18.24
2022-07-29T01:15:49.539Z,18.19
2022-07-29T01:18:34.052Z,18.13
2022-07-29T01:21:54.812Z,18.09
2022-07-29T01:24:45.926Z,18.06
2022-07-29T01:27:24.939Z,18.01
2022-07-29T01:29:59.718Z,17.98
2022-07-29T01:32:32.780Z,17.98
2022-07-29T01:35:21.056Z,17.97
2022-07-29T01:38:01.866Z,17.99
2022-07-29T01:40:54.714Z,17.98
2022-07-29T01:43:35.017Z,17.96
2022-07-29T01:46:08.097Z,17.96
2022-07-29T01:48:50.341Z,17.93
2022-07-29T01:51:27.214Z,17.88
2022-07-29T01:54:20.620Z,17.86
2022-07-29T01:56:52.085Z,17.87
2022-07-29T01:59:21.428Z,17.85
2022-07-29T02:01:51.705Z,17.82
2022-07-29T02:04:26.706Z,17.82
2022-07-29T02:06:56.909Z,17.80
2022-07-29T02:09:29.015Z,17.78
2022-07-29T02:11:58.787Z,17.77
2022-07-29T02:14:33.299Z,17.74
2022-07-29T02:17:04.292Z,17.74
2022-07-29T02:19:34.075Z,17.74
2022-07-29T02:22:05.650Z,17.76
2022-07-29T02:24:37.704Z,17.77
2022-07-29T02:27:09.252Z,17.71
2022-07-29T02:29:40.310Z,17.69
2022-07-29T02:32:10.530Z,17.67
2022-07-29T02:34:40.437Z,17.64
2022-07-29T02:37:11.713Z,17.64
2022-07-29T02:39:43.085Z,17.62
2022-07-29T02:42:17.404Z,17.63
2022-07-29T02:44:48.539Z,17.67
2022-07-29T02:47:45.989Z,17.65
2022-07-29T02:50:27.092Z,17.61
2022-07-29T02:53:04.414Z,17.57
2022-07-29T02:55:41.477Z,17.55
2022-07-29T02:58:32.874Z,17.57
2022-07-29T03:01:08.462Z,17.60
2022-07-29T03:03:40.297Z,17.59
2022-07-29T03:06:09.657Z,17.55
2022-07-29T03:08:40.825Z,17.54
2022-07-29T03:11:11.451Z,17.55
2022-07-29T03:13:42.722Z,17.54
2022-07-29T03:16:13.699Z,17.52
2022-07-29T03:18:45.422Z,17.51
2022-07-29T03:21:15.077Z,17.51
2022-07-29T03:23:48.165Z,17.53
2022-07-29T03:26:18.224Z,17.59
2022-07-29T03:28:48.147Z,17.61
2022-07-29T03:31:18.098Z,17.63
2022-07-29T03:33:49.482Z,17.67
2022-07-29T03:36:20.121Z,17.70
2022-07-29T03:38:50.923Z,17.77
2022-07-29T03:41:22.321Z,17.80
2022-07-29T03:43:54.335Z,17.79
2022-07-29T03:46:24.663Z,17.82
2022-07-29T03:48:58.966Z,17.86
2022-07-29T03:51:33.954Z,17.89
2022-07-29T03:54:09.479Z,17.90
2022-07-29T03:56:39.239Z,17.93
2022-07-29T03:59:08.797Z,17.98
2022-07-29T04:01:39.561Z,18.04
2022-07-29T04:04:11.334Z,18.10
2022-07-29T04:06:44.495Z,18.17
2022-07-29T04:09:16.577Z,18.24
2022-07-29T04:12:02.383Z,18.31
2022-07-29T04:14:19.516Z,18.42
2022-07-29T04:16:51.504Z,18.54
2022-07-29T04:19:21.131Z,18.63
2022-07-29T04:21:50.819Z,18.69
2022-07-29T04:24:21.304Z,18.77
2022-07-29T04:26:52.511Z,18.85
2022-07-29T04:29:22.412Z,18.95
2022-07-29T04:31:51.522Z,19.05
2022-07-29T04:34:21.287Z,19.15
2022-07-29T04:36:50.792Z,19.25
2022-07-29T04:39:23.355Z,19.36
2022-07-29T04:41:54.917Z,19.43
2022-07-29T04:44:28.928Z,19.53
2022-07-29T04:46:58.896Z,19.59
2022-07-29T04:49:29.287Z,19.71
2022-07-29T04:51:58.849Z,19.82
2022-07-29T04:54:28.932Z,19.96
2022-07-29T04:56:59.847Z,20.08
2022-07-29T04:59:30.101Z,20.21
2022-07-29T05:01:59.554Z,20.35
2022-07-29T05:04:30.643Z,20.51
2022-07-29T05:07:00.335Z,20.66
2022-07-29T05:09:33.315Z,20.78
2022-07-29T05:12:04.058Z,20.93
2022-07-29T05:14:34.326Z,21.09
2022-07-29T05:17:06.284Z,21.28
2022-07-29T05:19:39.508Z,21.46
2022-07-29T05:22:10.368Z,21.65
2022-07-29T05:24:41.961Z,21.90
2022-07-29T05:27:11.453Z,22.17
2022-07-29T05:29:44.344Z,22.49
2022-07-29T05:32:15.207Z,22.77
2022-07-29T05:34:51.240Z,23.05
2022-07-29T05:37:18.585Z,23.35
2022-07-29T05:39:56.381Z,23.65
2022-07-29T05:42:21.643Z,23.90
2022-07-29T05:44:51.875Z,24.21
2022-07-29T05:47:22.479Z,24.46
2022-07-29T05:49:53.193Z,24.66
2022-07-29T05:52:23.124Z,24.84
2022-07-29T05:54:53.193Z,25.00
2022-07-29T05:57:24.440Z,25.16
2022-07-29T05:59:53.913Z,25.39
2022-07-29T06:02:26.638Z,25.64
2022-07-29T06:04:58.141Z,25.90
2022-07-29T06:07:29.769Z,26.11
2022-07-29T06:10:00.982Z,26.33
2022-07-29T06:12:31.548Z,26.51
2022-07-29T06:15:01.058Z,26.60
2022-07-29T06:17:33.612Z,26.69
2022-07-29T06:20:04.785Z,26.89
2022-07-29T06:22:36.547Z,27.14
2022-07-29T06:25:06.941Z,27.29
2022-07-29T06:27:37.404Z,27.42
2022-07-29T06:30:09.666Z,27.46
2022-07-29T06:32:43.340Z,27.61
2022-07-29T06:35:37.718Z,27.84
2022-07-29T06:37:44.660Z,28.04
2022-07-29T06:40:36.959Z,28.26
2022-07-29T06:43:08.279Z,28.26
2022-07-29T06:45:42.556Z,28.45
2022-07-29T06:48:12.687Z,28.55
2022-07-29T06:50:42.780Z,28.64
2022-07-29T06:53:12.361Z,28.77
2022-07-29T06:55:43.628Z,28.93
2022-07-29T06:58:17.272Z,29.10
2022-07-29T07:00:49.099Z,29.36
2022-07-29T07:03:20.394Z,29.57
2022-07-29T07:05:52.917Z,29.71
2022-07-29T07:08:24.587Z,29.84
2022-07-29T07:10:56.018Z,29.88
2022-07-29T07:13:26.066Z,29.95
2022-07-29T07:15:58.056Z,30.00
2022-07-29T07:18:29.953Z,30.06
2022-07-29T07:21:01.691Z,30.14
2022-07-29T07:23:31.888Z,30.23
2022-07-29T07:26:02.188Z,30.28
2022-07-29T07:28:33.160Z,30.39
2022-07-29T07:31:05.590Z,30.51
2022-07-29T07:33:37.834Z,30.53
2022-07-29T07:36:08.825Z,30.51
2022-07-29T07:38:41.592Z,30.61
2022-07-29T07:41:11.779Z,30.68
2022-07-29T07:43:41.039Z,30.80
2022-07-29T07:46:11.441Z,31.04
2022-07-29T07:48:42.712Z,31.16
2022-07-29T07:51:12.578Z,31.07
2022-07-29T07:53:41.817Z,31.07
2022-07-29T07:56:13.609Z,31.12
2022-07-29T07:58:43.280Z,31.14
2022-07-29T08:01:12.389Z,31.07
2022-07-29T08:03:43.198Z,31.22
2022-07-29T08:06:14.636Z,31.36
2022-07-29T08:08:44.289Z,31.55
2022-07-29T08:11:14.714Z,31.58
2022-07-29T08:13:45.312Z,31.50
2022-07-29T08:16:17.017Z,31.50
2022-07-29T08:18:46.796Z,31.56
2022-07-29T08:21:17.535Z,31.64
2022-07-29T08:24:00.684Z,31.78
2022-07-29T08:26:26.542Z,31.82
2022-07-29T08:28:55.906Z,31.81
2022-07-29T08:31:27.643Z,31.82
2022-07-29T08:34:00.026Z,31.82
2022-07-29T08:36:29.796Z,31.60
2022-07-29T08:39:01.848Z,31.54
2022-07-29T08:41:32.997Z,31.69
2022-07-29T08:44:03.467Z,31.63
2022-07-29T08:46:38.199Z,31.55
2022-07-29T08:49:10.599Z,31.52
2022-07-29T08:51:49.293Z,31.50
2022-07-29T08:54:13.785Z,31.45
2022-07-29T08:56:44.611Z,31.38
2022-07-29T08:59:16.645Z,31.17
2022-07-29T09:01:49.030Z,30.97
2022-07-29T09:04:19.104Z,30.71
2022-07-29T09:06:52.951Z,30.45
2022-07-29T09:09:23.650Z,30.29
2022-07-29T09:11:54.802Z,30.27
2022-07-29T09:14:24.824Z,30.34
2022-07-29T09:16:57.396Z,30.45
2022-07-29T09:19:32.337Z,30.52
2022-07-29T09:22:03.692Z,30.52
2022-07-29T09:24:49.432Z,30.46
2022-07-29T09:27:24.278Z,30.39
2022-07-29T09:30:07.586Z,30.30
2022-07-29T09:33:01.583Z,30.26
2022-07-29T09:35:31.536Z,30.19
2022-07-29T09:38:13.427Z,30.05
2022-07-29T09:40:43.614Z,29.98
2022-07-29T09:43:14.066Z,29.97
2022-07-29T09:45:43.862Z,29.95
2022-07-29T09:48:20.175Z,29.94
2022-07-29T09:50:50.594Z,29.90
2022-07-29T09:53:38.564Z,29.88
2022-07-29T09:56:07.879Z,29.82
2022-07-29T09:58:39.525Z,29.63
2022-07-29T10:01:09.958Z,29.42
2022-07-29T10:03:54.005Z,29.42
2022-07-29T10:06:23.078Z,29.30
2022-07-29T10:08:53.595Z,29.29
2022-07-29T10:11:23.591Z,29.24
2022-07-29T10:13:53.040Z,29.25
2022-07-29T10:16:28.621Z,29.32
2022-07-29T10:18:59.174Z,29.31
2022-07-29T10:21:36.016Z,29.32
2022-07-29T10:24:05.338Z,29.33
2022-07-29T10:26:36.049Z,29.42
2022-07-29T10:29:05.442Z,29.50
2022-07-29T10:31:47.832Z,29.50
2022-07-29T10:34:31.208Z,29.59
2022-07-29T10:37:23.351Z,29.68
2022-07-29T10:40:41.343Z,29.65
2022-07-29T10:43:23.030Z,29.52
2022-07-29T10:45:55.692Z,29.54
2022-07-29T10:48:27.309Z,29.54
2022-07-29T10:51:04.908Z,29.52
2022-07-29T10:53:53.484Z,29.47
2022-07-29T10:56:31.714Z,29.44
2022-07-29T10:59:25.259Z,29.42
2022-07-29T11:02:27.753Z,29.40
2022-07-29T11:04:51.241Z,29.58
2022-07-29T11:07:20.460Z,29.58
2022-07-29T11:10:20.200Z,29.69
2022-07-29T11:12:52.051Z,29.77
2022-07-29T11:15:25.052Z,29.77
2022-07-29T11:18:04.853Z,29.75
2022-07-29T11:20:47.794Z,29.70
2022-07-29T11:23:36.229Z,29.66
2022-07-29T11:26:23.658Z,29.65
2022-07-29T11:29:14.912Z,29.69
2022-07-29T11:31:54.003Z,29.68
2022-07-29T11:34:33.356Z,29.54
2022-07-29T11:37:15.323Z,29.46
2022-07-29T11:40:01.833Z,29.39
2022-07-29T11:42:41.709Z,29.41
2022-07-29T11:45:43.488Z,29.41
2022-07-29T11:47:52.340Z,29.45
2022-07-29T11:50:37.668Z,29.47
2022-07-29T11:53:14.911Z,29.43
2022-07-29T11:55:50.939Z,29.41
2022-07-29T11:58:17.120Z,29.31
2022-07-29T12:00:48.925Z,29.31
2022-07-29T12:03:35.318Z,29.28
2022-07-29T12:05:59.339Z,29.27
2022-07-29T12:08:31.876Z,29.27
2022-07-29T12:11:01.399Z,29.29
2022-07-29T12:13:37.861Z,29.31
2022-07-29T12:16:05.996Z,29.30
2022-07-29T12:18:36.275Z,29.31
2022-07-29T12:21:09.173Z,29.28
2022-07-29T12:23:41.926Z,29.27
2022-07-29T12:26:21.844Z,29.24
2022-07-29T12:28:47.137Z,29.22
2022-07-29T12:31:42.882Z,29.24
2022-07-29T12:33:54.652Z,29.21
2022-07-29T12:36:25.756Z,29.17
2022-07-29T12:38:56.316Z,28.96
2022-07-29T12:41:26.577Z,28.96
2022-07-29T12:43:57.765Z,28.97
2022-07-29T12:46:27.651Z,29.00
2022-07-29T12:48:58.534Z,28.97
2022-07-29T12:51:40.075Z,28.88
2022-07-29T12:54:14.756Z,28.87
2022-07-29T12:56:46.336Z,29.01
2022-07-29T12:59:22.628Z,29.01
2022-07-29T13:01:54.506Z,29.04
2022-07-29T13:04:30.348Z,29.02
2022-07-29T13:07:07.338Z,29.03
2022-07-29T13:09:44.578Z,29.03
2022-07-29T13:12:16.718Z,29.08
2022-07-29T13:14:51.049Z,29.10
2022-07-29T13:17:28.328Z,29.05
2022-07-29T13:20:13.180Z,28.96
2022-07-29T13:22:44.319Z,28.88
2022-07-29T13:25:14.028Z,28.75
2022-07-29T13:27:47.450Z,28.71
2022-07-29T13:30:17.049Z,28.67
2022-07-29T13:32:49.078Z,28.63
2022-07-29T13:35:18.108Z,28.58
2022-07-29T13:37:48.449Z,28.59
2022-07-29T13:40:17.861Z,28.57
2022-07-29T13:42:47.558Z,28.57
2022-07-29T13:45:18.648Z,28.58
2022-07-29T13:47:49.999Z,28.58
2022-07-29T13:50:19.593Z,28.59
2022-07-29T13:52:51.268Z,28.54
2022-07-29T13:55:20.978Z,28.50
2022-07-29T13:57:50.138Z,28.48
2022-07-29T14:00:20.251Z,28.43
2022-07-29T14:02:51.099Z,28.40
2022-07-29T14:05:22.635Z,28.40
2022-07-29T14:07:55.270Z,28.40
2022-07-29T14:10:25.780Z,28.40
2022-07-29T14:12:57.443Z,28.40
2022-07-29T14:15:29.044Z,28.42
2022-07-29T14:18:01.903Z,28.40
2022-07-29T14:20:32.204Z,28.38
2022-07-29T14:23:02.988Z,28.37
2022-07-29T14:25:34.618Z,28.38
2022-07-29T14:28:06.300Z,28.37
2022-07-29T14:30:36.246Z,28.40
2022-07-29T14:33:06.035Z,28.43
2022-07-29T14:35:37.706Z,28.45
2022-07-29T14:38:09.384Z,28.49
2022-07-29T14:40:40.124Z,28.51
2022-07-29T14:43:09.923Z,28.52
2022-07-29T14:45:39.584Z,28.47
2022-07-29T14:48:12.362Z,28.43
2022-07-29T14:50:41.615Z,28.40
2022-07-29T14:53:13.986Z,28.40
2022-07-29T14:55:45.079Z,28.43
2022-07-29T14:58:16.779Z,28.45
2022-07-29T15:00:47.214Z,28.48
2022-07-29T15:03:16.337Z,28.54
2022-07-29T15:05:48.230Z,28.53
2022-07-29T15:08:18.539Z,28.52
2022-07-29T15:10:49.035Z,28.50
2022-07-29T15:13:19.852Z,28.46
2022-07-29T15:15:50.681Z,28.45
2022-07-29T15:18:25.424Z,28.44
2022-07-29T15:20:53.929Z,28.42
2022-07-29T15:23:25.813Z,28.40
2022-07-29T15:25:56.857Z,28.37
2022-07-29T15:28:27.684Z,28.31
2022-07-29T15:31:00.434Z,28.24
2022-07-29T15:33:30.844Z,28.16
2022-07-29T15:36:02.250Z,28.13
2022-07-29T15:38:32.773Z,28.13
2022-07-29T15:41:03.410Z,28.11
2022-07-29T15:43:36.033Z,28.08
2022-07-29T15:46:24.427Z,28.03
2022-07-29T15:48:54.402Z,27.99
2022-07-29T15:51:26.190Z,27.95
2022-07-29T15:53:56.809Z,27.90
2022-07-29T15:56:28.294Z,27.87
2022-07-29T15:58:58.624Z,27.83
2022-07-29T16:01:28.477Z,27.80
2022-07-29T16:03:59.418Z,27.76
2022-07-29T16:06:31.849Z,27.71
2022-07-29T16:09:01.304Z,27.67
2022-07-29T16:11:33.184Z,27.63
2022-07-29T16:14:03.573Z,27.59
2022-07-29T16:16:33.946Z,27.52
2022-07-29T16:19:04.847Z,27.47
2022-07-29T16:21:37.145Z,27.44
2022-07-29T16:24:08.019Z,27.42
2022-07-29T16:26:37.975Z,27.39
2022-07-29T16:29:08.729Z,27.37
2022-07-29T16:31:39.723Z,27.33
2022-07-29T16:34:09.939Z,27.30
2022-07-29T16:36:41.888Z,27.30
2022-07-29T16:39:12.836Z,27.27
2022-07-29T16:41:42.685Z,27.22
2022-07-29T16:44:12.195Z,27.21
2022-07-29T16:46:47.196Z,27.20
2022-07-29T16:49:19.177Z,27.19
2022-07-29T16:51:50.741Z,27.17
2022-07-29T16:54:21.351Z,27.13
2022-07-29T16:56:51.600Z,27.12
2022-07-29T16:59:20.699Z,27.06
2022-07-29T17:01:51.122Z,27.03
2022-07-29T17:04:22.980Z,26.98
2022-07-29T17:06:55.446Z,26.95
2022-07-29T17:09:26.923Z,26.89
2022-07-29T17:11:57.851Z,26.84
2022-07-29T17:14:31.063Z,26.81
2022-07-29T17:17:02.154Z,26.79
2022-07-29T17:19:35.271Z,26.75
2022-07-29T17:22:14.341Z,26.73
2022-07-29T17:24:39.049Z,26.69
2022-07-29T17:27:11.133Z,26.66
2022-07-29T17:29:41.858Z,26.62
2022-07-29T17:32:13.939Z,26.58
2022-07-29T17:34:43.168Z,26.55
2022-07-29T17:37:13.849Z,26.51
2022-07-29T17:39:45.799Z,26.47
2022-07-29T17:42:16.383Z,26.43
2022-07-29T17:44:47.490Z,26.41
2022-07-29T17:47:17.524Z,26.34
2022-07-29T17:49:47.998Z,26.28
2022-07-29T17:52:18.979Z,26.25
2022-07-29T17:54:49.749Z,26.20
2022-07-29T17:57:20.554Z,26.17
2022-07-29T17:59:50.686Z,26.16
2022-07-29T18:02:22.434Z,26.13
2022-07-29T18:04:55.266Z,26.11
2022-07-29T18:07:25.659Z,26.09
2022-07-29T18:10:00.280Z,26.08
2022-07-29T18:12:27.337Z,26.05
2022-07-29T18:14:58.058Z,26.05
2022-07-29T18:17:50.391Z,26.02
2022-07-29T18:20:00.892Z,26.00
2022-07-29T18:22:30.444Z,25.97
2022-07-29T18:25:00.115Z,25.95
2022-07-29T18:27:30.956Z,25.91
2022-07-29T18:30:04.596Z,25.89
2022-07-29T18:32:34.974Z,25.86
2022-07-29T18:35:06.073Z,25.83
2022-07-29T18:38:01.010Z,25.81
2022-07-29T18:40:12.350Z,25.81
2022-07-29T18:42:42.361Z,25.81
2022-07-29T18:45:19.084Z,25.79
2022-07-29T18:47:44.537Z,25.77
2022-07-29T18:50:16.739Z,25.76
2022-07-29T18:52:47.481Z,25.74
2022-07-29T18:55:18.947Z,25.74
2022-07-29T18:57:56.095Z,25.73
2022-07-29T19:00:22.680Z,25.72
2022-07-29T19:02:52.633Z,25.68
2022-07-29T19:05:22.983Z,25.63
2022-07-29T19:07:56.011Z,25.62
2022-07-29T19:10:27.554Z,25.60
2022-07-29T19:12:59.219Z,25.58
2022-07-29T19:15:29.532Z,25.56
2022-07-29T19:18:01.419Z,25.55
2022-07-29T19:20:32.363Z,25.54
2022-07-29T19:23:03.658Z,25.55
2022-07-29T19:25:35.768Z,25.55
2022-07-29T19:28:05.355Z,25.54
2022-07-29T19:30:35.183Z,25.52
2022-07-29T19:33:05.683Z,25.50
2022-07-29T19:35:36.099Z,25.45
2022-07-29T19:38:07.541Z,25.43
2022-07-29T19:40:39.236Z,25.41
2022-07-29T19:43:51.022Z,25.40
2022-07-29T19:45:41.177Z,25.38
2022-07-29T19:48:13.180Z,25.35
2022-07-29T19:50:42.981Z,25.34
2022-07-29T19:53:13.427Z,25.31
2022-07-29T19:55:43.470Z,25.31
2022-07-29T19:58:13.341Z,25.28
2022-07-29T20:00:43.714Z,25.25
2022-07-29T20:03:14.618Z,25.23
2022-07-29T20:05:48.030Z,25.20
2022-07-29T20:08:17.046Z,25.18
2022-07-29T20:10:46.916Z,25.15
2022-07-29T20:13:18.505Z,25.13
2022-07-29T20:15:47.929Z,25.10
2022-07-29T20:18:18.204Z,25.06
2022-07-29T20:20:50.015Z,25.05
2022-07-29T20:23:21.442Z,25.03
2022-07-29T20:25:54.108Z,25.03
2022-07-29T20:28:26.671Z,25.05
2022-07-29T20:30:56.832Z,25.05
2022-07-29T20:33:27.098Z,25.03
2022-07-29T20:35:58.371Z,25.02
2022-07-29T20:38:30.834Z,25.00
2022-07-29T20:41:02.058Z,24.95
2022-07-29T20:43:31.564Z,24.93
2022-07-29T20:46:03.398Z,24.91
2022-07-29T20:48:32.634Z,24.90
2022-07-29T20:51:02.141Z,24.89
2022-07-29T20:53:32.592Z,24.89
2022-07-29T20:56:02.509Z,24.87
2022-07-29T20:58:34.178Z,24.85
2022-07-29T21:01:04.121Z,24.84
2022-07-29T21:03:33.323Z,24.79
2022-07-29T21:06:03.589Z,24.76
2022-07-29T21:08:34.646Z,24.75
2022-07-29T21:11:04.541Z,24.74
2022-07-29T21:13:36.230Z,24.71
2022-07-29T21:16:09.676Z,24.70
2022-07-29T21:18:42.754Z,24.68
2022-07-29T21:21:13.031Z,24.68
2022-07-29T21:23:44.379Z,24.61
2022-07-29T21:26:14.192Z,24.59
2022-07-29T21:28:45.223Z,24.56
2022-07-29T21:31:16.747Z,24.55
2022-07-29T21:33:46.855Z,24.52
2022-07-29T21:38:50.012Z,24.50
2022-07-29T21:41:21.959Z,24.48
2022-07-29T21:43:52.173Z,24.47
2022-07-29T21:46:24.413Z,24.46
2022-07-29T21:48:54.263Z,24.44
2022-07-29T21:51:23.951Z,24.39
2022-07-29T21:53:53.105Z,24.32
2022-07-29T21:56:23.635Z,24.29
2022-07-29T21:58:55.580Z,24.28
2022-07-29T22:01:25.474Z,24.28
2022-07-29T22:03:57.197Z,24.23
2022-07-29T22:06:26.344Z,24.17
2022-07-29T22:08:56.298Z,24.12
2022-07-29T22:11:28.048Z,24.11
2022-07-29T22:13:57.322Z,24.12
2022-07-29T22:16:28.820Z,24.11
2022-07-29T22:18:58.771Z,24.12
2022-07-29T22:21:30.466Z,24.12
2022-07-29T22:24:01.101Z,24.11
2022-07-29T22:26:30.957Z,24.11
2022-07-29T22:29:01.560Z,24.03
2022-07-29T22:31:31.045Z,23.97
2022-07-29T22:34:00.258Z,23.92
2022-07-29T22:36:30.268Z,23.89
2022-07-29T22:38:59.152Z,23.87
2022-07-29T22:41:29.211Z,23.86
2022-07-29T22:43:59.149Z,23.86
2022-07-29T22:46:29.033Z,23.86
2022-07-29T22:48:59.240Z,23.84
2022-07-29T22:51:29.754Z,23.83
2022-07-29T22:53:59.121Z,23.76
2022-07-29T22:56:28.658Z,23.70
2022-07-29T22:58:58.266Z,23.63
2022-07-29T23:01:37.258Z,23.61
2022-07-29T23:04:00.723Z,23.58
2022-07-29T23:06:30.388Z,23.54
2022-07-29T23:09:02.133Z,23.52
2022-07-29T23:11:32.854Z,23.50
2022-07-29T23:14:02.074Z,23.45
2022-07-29T23:16:31.894Z,23.37
2022-07-29T23:19:03.686Z,23.36
2022-07-29T23:21:34.045Z,23.35
2022-07-29T23:24:05.066Z,23.36
2022-07-29T23:26:36.912Z,23.38
2022-07-29T23:29:08.373Z,23.39
2022-07-29T23:31:41.807Z,23.41
2022-07-29T23:34:10.287Z,23.42
2022-07-29T23:36:39.688Z,23.42
2022-07-29T23:39:11.904Z,23.42
2022-07-29T23:41:41.778Z,23.39
2022-07-29T23:44:12.450Z,23.36
2022-07-29T23:46:42.568Z,23.32
2022-07-29T23:49:13.739Z,23.33
2022-07-29T23:51:42.828Z,23.31
2022-07-29T23:54:12.450Z,23.27
2022-07-29T23:56:42.723Z,23.26
2022-07-29T23:59:12.034Z,23.26
